Time;durP1;ratioP1;P1;durP2;ratioP2;P2;SDS_P1;SDS_P2;PMS_P1;PMS_P2;Temp;Humidity;BMP_temperature;BMP_pressure;BME280_temperature;BME280_humidity;BME280_pressure;Samples;Min_cycle;Max_cycle;Signal;HPM_P1;HPM_P2
2022/09/04 00:02:22;;;;;;;4.10;1.30;;;16.80;1.00;;;;;;4990551;28;20206;-61
2022/09/04 00:04:58;;;;;;;1.63;1.08;;;16.70;1.00;;;;;;5006413;28;20206;-61
2022/09/04 00:07:29;;;;;;;1.85;1.20;;;16.70;1.00;;;;;;4984015;28;20256;-61
2022/09/04 00:10:08;;;;;;;1.33;1.23;;;16.70;1.00;;;;;;4989646;28;20199;-61
2022/09/04 00:12:44;;;;;;;2.13;1.23;;;16.60;1.00;;;;;;4996636;28;20210;-61
2022/09/04 00:15:14;;;;;;;2.03;1.50;;;16.60;1.00;;;;;;5004215;28;20202;-61
2022/09/04 00:17:48;;;;;;;1.70;1.27;;;16.70;1.00;;;;;;4996623;28;20213;-61
2022/09/04 00:20:22;;;;;;;1.40;1.27;;;16.60;1.00;;;;;;5005788;28;20193;-61
2022/09/04 00:22:55;;;;;;;6.85;1.10;;;16.50;1.00;;;;;;4979086;28;20213;-61
2022/09/04 00:25:29;;;;;;;1.73;1.30;;;16.60;1.00;;;;;;4996653;28;20210;-61
2022/09/04 00:28:04;;;;;;;1.63;1.25;;;16.40;1.00;;;;;;4995714;28;20206;-61
2022/09/04 00:30:32;;;;;;;1.52;1.20;;;16.20;1.00;;;;;;4997215;28;20668;-61
2022/09/04 00:33:06;;;;;;;2.30;1.13;;;16.50;1.00;;;;;;4997126;28;20248;-61
2022/09/04 00:35:37;;;;;;;2.95;1.10;;;16.40;1.00;;;;;;4995797;28;20211;-61
2022/09/04 00:38:08;;;;;;;3.42;1.88;;;16.40;1.00;;;;;;4975179;28;20233;-61
2022/09/04 00:40:40;;;;;;;1.65;1.17;;;16.30;1.00;;;;;;5004214;28;20583;-61
2022/09/04 00:43:41;;;;;;;2.67;1.13;;;16.30;1.00;;;;;;4987413;28;20299;-61
2022/09/04 00:46:32;;;;;;;1.10;1.00;;;16.20;1.00;;;;;;4994654;28;20205;-61
2022/09/04 00:49:35;;;;;;;3.13;1.23;;;16.00;1.00;;;;;;4987166;28;20198;-61
2022/09/04 00:52:16;;;;;;;1.13;1.10;;;16.20;1.00;;;;;;4983611;28;20221;-61
2022/09/04 00:55:01;;;;;;;0.90;0.90;;;16.20;1.00;;;;;;4996604;28;22749;-61
2022/09/04 00:57:50;;;;;;;1.73;0.95;;;16.20;1.00;;;;;;4992504;28;20210;-61
2022/09/04 01:00:19;;;;;;;1.10;1.00;;;16.10;1.00;;;;;;4989923;28;20209;-61
2022/09/04 01:03:19;;;;;;;1.38;1.13;;;16.30;1.00;;;;;;5008609;28;20202;-61
2022/09/04 01:06:03;;;;;;;1.63;1.27;;;16.20;1.00;;;;;;4978908;28;20813;-61
2022/09/04 01:08:44;;;;;;;1.45;1.15;;;16.20;1.00;;;;;;4977483;28;20213;-61
2022/09/04 01:11:20;;;;;;;6.80;1.30;;;16.10;1.00;;;;;;4992168;28;20216;-61
2022/09/04 01:14:09;;;;;;;2.55;1.30;;;16.10;1.00;;;;;;5002687;28;20197;-61
2022/09/04 01:16:43;;;;;;;2.28;1.27;;;15.50;1.00;;;;;;5000494;28;20214;-61
2022/09/04 01:19:24;;;;;;;1.63;1.30;;;16.00;1.00;;;;;;4996469;28;20225;-61
2022/09/04 01:22:08;;;;;;;4.90;1.20;;;16.00;1.00;;;;;;5009495;28;20207;-61
2022/09/04 01:24:59;;;;;;;4.57;1.45;;;16.20;1.00;;;;;;5006964;28;20214;-61
2022/09/04 01:27:31;;;;;;;1.20;1.10;;;16.00;1.00;;;;;;4997473;28;20680;-61
2022/09/04 01:30:05;;;;;;;1.90;1.30;;;16.00;1.00;;;;;;4992985;28;20206;-61
2022/09/04 01:32:42;;;;;;;4.35;1.25;;;15.90;1.00;;;;;;5006311;28;21120;-61
2022/09/04 01:35:19;;;;;;;1.65;1.27;;;16.00;1.00;;;;;;4989306;28;20198;-61
2022/09/04 01:37:58;;;;;;;3.00;1.27;;;15.70;1.00;;;;;;5012766;28;20251;-61
2022/09/04 01:40:39;;;;;;;2.50;1.20;;;15.90;1.00;;;;;;4991541;28;20589;-61
2022/09/04 01:43:11;;;;;;;1.35;1.25;;;15.90;1.00;;;;;;4991454;28;20202;-61
2022/09/04 01:46:00;;;;;;;2.55;1.35;;;15.80;1.00;;;;;;5001087;28;20323;-62
2022/09/04 01:48:33;;;;;;;2.03;1.05;;;15.80;1.00;;;;;;5008152;28;20194;-60
2022/09/04 01:51:05;;;;;;;1.10;1.00;;;15.80;1.00;;;;;;5000378;28;20572;-61
2022/09/04 01:53:36;;;;;;;1.23;1.13;;;15.90;1.00;;;;;;4982048;28;20206;-61
2022/09/04 01:56:13;;;;;;;1.25;1.10;;;14.80;1.00;;;;;;5012215;28;20214;-61
2022/09/04 01:58:47;;;;;;;1.33;1.20;;;15.80;1.00;;;;;;4984391;28;20230;-61
2022/09/04 02:01:21;;;;;;;1.20;1.10;;;15.70;1.00;;;;;;4996611;28;20663;-61
2022/09/04 02:03:57;;;;;;;2.17;1.30;;;15.70;1.00;;;;;;5008420;28;20201;-61
2022/09/04 02:06:32;;;;;;;2.58;1.13;;;15.90;1.00;;;;;;4998427;28;20215;-61
2022/09/04 02:09:25;;;;;;;1.52;1.42;;;15.80;1.00;;;;;;4988831;28;20234;-61
2022/09/04 02:12:03;;;;;;;2.17;1.42;;;15.70;1.00;;;;;;5008390;28;20202;-61
2022/09/04 02:14:38;;;;;;;5.28;1.55;;;15.50;1.00;;;;;;4987745;28;20237;-61
2022/09/04 02:17:11;;;;;;;5.10;1.40;;;15.70;1.00;;;;;;4999583;28;20217;-61
2022/09/04 02:19:50;;;;;;;3.25;1.20;;;15.70;3.80;;;;;;5005210;28;20227;-61
2022/09/04 02:22:26;;;;;;;1.50;1.30;;;15.70;1.00;;;;;;4997030;28;20684;-61
2022/09/04 02:25:00;;;;;;;1.40;1.30;;;15.40;2.40;;;;;;4985308;28;20733;-61
2022/09/04 02:27:33;;;;;;;1.48;1.23;;;15.60;1.00;;;;;;5007073;28;20208;-61
2022/09/04 02:30:06;;;;;;;5.10;1.58;;;15.70;1.00;;;;;;4994763;28;20210;-61
2022/09/04 02:32:38;;;;;;;1.48;1.38;;;15.60;7.70;;;;;;5001385;28;20226;-61
2022/09/04 02:35:13;;;;;;;1.30;1.20;;;15.60;1.00;;;;;;5012496;28;20206;-61
2022/09/04 02:37:53;;;;;;;1.80;1.30;;;15.60;18.20;;;;;;4989796;28;20221;-61
2022/09/04 02:40:29;;;;;;;1.98;1.40;;;15.60;1.00;;;;;;4984558;28;20591;-61
2022/09/04 02:43:11;;;;;;;1.42;1.33;;;15.60;5.80;;;;;;5010504;28;20201;-61
2022/09/04 02:45:46;;;;;;;1.88;1.35;;;15.60;1.00;;;;;;4995848;28;20203;-61
2022/09/04 02:48:20;;;;;;;1.55;1.40;;;15.40;18.90;;;;;;5001678;28;20754;-61
2022/09/04 02:51:05;;;;;;;1.45;1.35;;;16.70;1.00;;;;;;4996394;28;20203;-61
2022/09/04 02:53:41;;;;;;;4.80;1.23;;;15.50;1.00;;;;;;4999185;28;20289;-61
2022/09/04 02:56:24;;;;;;;6.60;1.38;;;15.50;18.10;;;;;;4988699;28;20206;-61
2022/09/04 02:59:09;;;;;;;2.35;1.70;;;15.40;1.00;;;;;;5004336;28;20222;-61
2022/09/04 03:01:44;;;;;;;4.85;1.70;;;15.50;51.10;;;;;;4998468;28;20210;-61
2022/09/04 03:04:15;;;;;;;2.53;1.40;;;15.30;37.30;;;;;;5000012;28;20675;-61
2022/09/04 03:06:50;;;;;;;3.80;1.33;;;15.20;1.00;;;;;;4995533;28;20206;-61
2022/09/04 03:09:24;;;;;;;2.97;1.20;;;15.00;28.00;;;;;;4995807;28;20907;-61
2022/09/04 03:11:58;;;;;;;1.40;1.30;;;15.30;1.00;;;;;;4983739;28;26043;-61
2022/09/04 03:14:33;;;;;;;1.90;1.30;;;15.30;27.00;;;;;;5008253;28;20198;-61
2022/09/04 03:17:09;;;;;;;3.08;1.35;;;15.20;1.00;;;;;;4977786;28;20205;-61
2022/09/04 03:19:43;;;;;;;1.70;1.30;;;15.10;30.90;;;;;;4994240;28;20296;-61
2022/09/04 03:22:17;;;;;;;3.33;1.40;;;15.30;45.90;;;;;;4997036;28;20237;-61
2022/09/04 03:25:02;;;;;;;2.08;1.10;;;15.20;1.00;;;;;;4991913;28;20568;-61
2022/09/04 03:27:31;;;;;;;2.35;1.35;;;15.20;41.90;;;;;;4985372;28;20245;-61
2022/09/04 03:30:02;;;;;;;3.60;1.80;;;15.20;68.10;;;;;;5007675;28;20207;-61
2022/09/04 03:32:40;;;;;;;1.27;1.17;;;15.00;48.20;;;;;;4994540;28;20341;-61
2022/09/04 03:35:15;;;;;;;1.70;1.40;;;15.00;1.00;;;;;;4995457;28;20205;-61
2022/09/04 03:38:00;;;;;;;1.42;1.23;;;15.00;4.80;;;;;;5007020;28;20260;-61
2022/09/04 03:40:37;;;;;;;1.38;1.27;;;15.00;1.00;;;;;;4996456;28;20241;-61
2022/09/04 03:43:24;;;;;;;7.57;1.50;;;14.90;1.00;;;;;;4982138;28;20206;-61
2022/09/04 03:46:01;;;;;;;1.90;1.30;;;15.00;16.10;;;;;;5010443;28;20244;-61
2022/09/04 03:48:44;;;;;;;3.30;2.20;;;15.00;18.30;;;;;;4995201;28;20216;-61
2022/09/04 03:51:23;;;;;;;1.73;1.23;;;14.90;11.40;;;;;;4994193;28;20226;-60
2022/09/04 03:54:00;;;;;;;1.33;1.23;;;14.80;15.70;;;;;;5007510;28;21295;-60
2022/09/04 03:56:54;;;;;;;5.00;1.35;;;14.80;30.70;;;;;;4996305;28;20321;-61
2022/09/04 03:59:37;;;;;;;1.70;1.33;;;14.80;99.90;;;;;;4975864;28;21172;-60
2022/09/04 04:02:12;;;;;;;1.70;1.20;;;12.40;99.90;;;;;;4993905;28;20238;-61
2022/09/04 04:05:23;;;;;;;1.30;1.20;;;14.70;44.00;;;;;;4999451;28;20205;-61
2022/09/04 04:08:03;;;;;;;4.80;1.30;;;14.80;46.20;;;;;;4972662;28;20205;-60
2022/09/04 04:10:44;;;;;;;1.70;1.48;;;14.80;99.90;;;;;;5000080;28;20202;-61
2022/09/04 04:13:23;;;;;;;3.45;1.25;;;14.80;34.60;;;;;;4981405;28;20238;-61
2022/09/04 04:16:02;;;;;;;4.30;1.38;;;14.80;57.30;;;;;;5005062;28;20207;-61
2022/09/04 04:18:53;;;;;;;4.63;1.52;;;15.00;99.90;;;;;;4997522;28;20237;-61
2022/09/04 04:21:33;;;;;;;2.15;1.33;;;14.80;68.90;;;;;;4992197;28;20206;-61
2022/09/04 04:24:16;;;;;;;1.20;1.10;;;14.80;58.10;;;;;;5006623;28;20200;-61
2022/09/04 04:26:58;;;;;;;8.40;1.20;;;14.70;99.90;;;;;;4998336;28;21078;-61
2022/09/04 04:29:46;;;;;;;1.15;1.08;;;14.70;80.50;;;;;;4982453;28;20217;-61
2022/09/04 04:32:49;;;;;;;4.88;1.40;;;14.70;81.40;;;;;;5003564;28;20198;-61
2022/09/04 04:35:27;;;;;;;1.85;1.35;;;14.70;89.20;;;;;;4955175;28;20218;-61
2022/09/04 04:38:17;;;;;;;1.38;1.20;;;14.80;99.90;;;;;;4997155;28;20203;-61
2022/09/04 04:41:15;;;;;;;1.50;1.40;;;14.70;99.90;;;;;;5003925;28;20324;-61
2022/09/04 04:43:53;;;;;;;1.35;1.23;;;14.60;96.10;;;;;;5007049;28;20845;-61
2022/09/04 04:46:33;;;;;;;2.75;1.50;;;14.60;99.50;;;;;;5000924;28;20292;-61
2022/09/04 04:49:27;;;;;;;2.95;1.40;;;14.50;99.90;;;;;;5004606;28;20205;-61
2022/09/04 04:52:08;;;;;;;1.52;1.30;;;14.70;99.90;;;;;;5006582;28;20234;-61
2022/09/04 04:54:51;;;;;;;3.05;1.33;;;14.60;99.90;;;;;;5002871;28;20956;-61
2022/09/04 04:57:31;;;;;;;2.15;1.60;;;14.60;99.90;;;;;;5000122;28;20206;-61
2022/09/04 05:00:06;;;;;;;2.63;1.45;;;14.60;99.90;;;;;;4989368;28;20230;-61
2022/09/04 05:02:41;;;;;;;2.15;1.50;;;14.60;99.90;;;;;;5012295;28;20198;-61
2022/09/04 05:05:14;;;;;;;3.13;1.90;;;14.80;99.90;;;;;;5003899;28;20208;-61
2022/09/04 05:07:46;;;;;;;1.92;1.60;;;14.80;99.90;;;;;;4992601;28;20708;-61
2022/09/04 05:10:21;;;;;;;1.30;1.20;;;14.90;99.90;;;;;;5008149;28;20198;-62
2022/09/04 05:13:01;;;;;;;2.30;1.50;;;14.60;99.90;;;;;;4999118;28;20242;-61
2022/09/04 05:15:35;;;;;;;1.73;1.42;;;14.50;99.90;;;;;;4983235;28;20602;-61
2022/09/04 05:18:08;;;;;;;1.33;1.23;;;14.60;99.90;;;;;;5010858;28;20214;-61
2022/09/04 05:20:45;;;;;;;1.30;1.20;;;15.20;99.90;;;;;;4994427;28;21106;-61
2022/09/04 05:23:22;;;;;;;1.40;1.30;;;14.70;99.90;;;;;;4994239;28;20838;-61
2022/09/04 05:25:55;;;;;;;3.80;1.30;;;14.70;99.90;;;;;;5011546;28;20232;-61
2022/09/04 05:28:29;;;;;;;2.97;1.33;;;14.80;99.90;;;;;;4992550;28;20206;-61
2022/09/04 05:31:08;;;;;;;2.33;1.60;;;14.80;99.90;;;;;;4981132;28;20212;-61
2022/09/04 05:33:40;;;;;;;4.10;1.65;;;15.20;99.90;;;;;;5008942;28;20238;-61
2022/09/04 05:36:16;;;;;;;2.78;1.52;;;14.90;99.90;;;;;;4987498;28;20362;-61
2022/09/04 05:38:55;;;;;;;3.65;1.73;;;14.80;99.90;;;;;;4990456;28;20237;-61
2022/09/04 05:41:41;;;;;;;3.53;1.60;;;14.90;99.90;;;;;;5007481;28;20245;-61
2022/09/04 05:44:27;;;;;;;3.13;1.50;;;14.80;99.90;;;;;;5000547;28;20699;-61
2022/09/04 05:47:06;;;;;;;1.52;1.30;;;14.80;99.90;;;;;;4983106;28;20923;-61
2022/09/04 05:49:48;;;;;;;6.60;1.40;;;14.80;99.90;;;;;;5005550;28;20201;-61
2022/09/04 05:52:33;;;;;;;2.67;1.77;;;14.80;99.90;;;;;;4995989;28;20198;-61
2022/09/04 05:55:22;;;;;;;1.90;1.52;;;15.10;99.90;;;;;;4993557;28;20744;-58
2022/09/04 05:58:02;;;;;;;2.97;1.55;;;15.60;99.90;;;;;;5009571;28;20511;-58
2022/09/04 06:00:41;;;;;;;1.95;1.50;;;14.90;99.90;;;;;;4995694;28;21766;-59
2022/09/04 06:03:33;;;;;;;9.45;1.73;;;15.00;99.90;;;;;;4975479;28;20214;-61
2022/09/04 06:06:11;;;;;;;1.38;1.27;;;15.00;99.90;;;;;;4999240;28;20217;-61
2022/09/04 06:09:22;;;;;;;5.78;1.67;;;15.20;99.90;;;;;;4982417;28;20202;-61
2022/09/04 06:12:17;;;;;;;2.70;1.60;;;15.20;99.90;;;;;;4967023;28;20947;-61
2022/09/04 06:15:22;;;;;;;2.17;1.85;;;15.20;99.90;;;;;;4992828;28;20211;-61
2022/09/04 06:18:00;;;;;;;2.90;1.77;;;15.50;99.90;;;;;;4972351;28;20202;-61
2022/09/04 06:20:44;;;;;;;2.95;1.52;;;15.40;99.90;;;;;;5006771;28;20237;-61
2022/09/04 06:23:35;;;;;;;2.78;1.60;;;15.40;99.90;;;;;;4994497;28;20206;-60
2022/09/04 06:26:29;;;;;;;3.03;1.77;;;15.50;99.90;;;;;;4996114;28;20217;-61
2022/09/04 06:29:14;;;;;;;5.18;2.00;;;15.50;99.90;;;;;;5003416;28;20202;-61
2022/09/04 06:32:10;;;;;;;1.67;1.58;;;15.70;99.90;;;;;;4994271;28;20210;-61
2022/09/04 06:34:53;;;;;;;3.92;1.65;;;15.70;99.90;;;;;;4977446;28;20209;-61
2022/09/04 06:37:31;;;;;;;1.60;1.50;;;15.70;99.90;;;;;;5006380;28;20210;-61
2022/09/04 06:40:13;;;;;;;2.80;1.95;;;15.70;99.90;;;;;;4994103;28;20266;-61
2022/09/04 06:42:54;;;;;;;2.50;1.60;;;15.90;99.90;;;;;;4986584;28;20217;-62
2022/09/04 06:45:30;;;;;;;2.30;1.75;;;15.90;99.90;;;;;;4990157;28;20606;-61
2022/09/04 06:48:08;;;;;;;3.30;1.75;;;16.10;99.90;;;;;;4981470;28;20205;-62
2022/09/04 06:50:48;;;;;;;1.90;1.45;;;16.00;99.90;;;;;;4975129;28;20218;-61
2022/09/04 06:53:21;;;;;;;3.45;1.60;;;16.10;99.90;;;;;;4996118;28;20206;-61
2022/09/04 06:56:01;;;;;;;1.85;1.55;;;16.10;99.90;;;;;;4990886;28;20218;-61
2022/09/04 06:58:57;;;;;;;5.28;2.00;;;16.20;99.90;;;;;;4989271;28;20238;-61
2022/09/04 07:01:39;;;;;;;3.97;2.17;;;16.10;99.90;;;;;;4979111;28;20312;-61
2022/09/04 07:04:17;;;;;;;3.70;2.00;;;16.60;99.90;;;;;;5002906;28;20206;-61
2022/09/04 07:06:53;;;;;;;2.70;1.90;;;16.40;99.90;;;;;;4983912;28;20214;-61
2022/09/04 07:09:24;;;;;;;3.80;2.30;;;16.30;99.90;;;;;;4988629;28;20316;-61
2022/09/04 07:12:11;;;;;;;2.70;1.85;;;16.50;99.90;;;;;;4995457;28;20210;-61
2022/09/04 07:14:55;;;;;;;3.42;1.92;;;17.70;99.90;;;;;;5001167;28;20198;-61
2022/09/04 07:17:28;;;;;;;2.83;1.95;;;16.80;99.90;;;;;;4981486;28;20202;-61
2022/09/04 07:20:12;;;;;;;2.85;2.08;;;16.60;99.90;;;;;;5002529;28;20226;-61
2022/09/04 07:23:02;;;;;;;2.80;1.85;;;13.40;99.90;;;;;;4994513;28;20664;-62
2022/09/04 07:25:43;;;;;;;3.40;1.90;;;16.60;99.90;;;;;;4986492;28;20803;-61
2022/09/04 07:28:42;;;;;;;2.30;1.98;;;18.70;99.90;;;;;;4993647;28;20240;-61
2022/09/04 07:31:15;;;;;;;2.33;1.95;;;16.90;99.90;;;;;;4986426;28;20203;-61
2022/09/04 07:33:51;;;;;;;5.55;2.30;;;17.30;99.90;;;;;;4991288;28;20336;-61
2022/09/04 07:36:30;;;;;;;5.03;2.10;;;17.00;99.90;;;;;;4980333;28;20210;-61
2022/09/04 07:39:07;;;;;;;7.03;1.92;;;17.10;99.90;;;;;;5002722;28;20575;-61
2022/09/04 07:41:44;;;;;;;3.58;2.08;;;16.50;99.90;;;;;;4982379;28;21012;-61
2022/09/04 07:44:19;;;;;;;3.30;1.92;;;16.00;99.90;;;;;;5005875;28;21129;-61
2022/09/04 07:46:56;;;;;;;2.53;2.15;;;16.90;99.90;;;;;;5001125;28;20193;-61
2022/09/04 07:49:31;;;;;;;5.88;2.20;;;17.20;99.90;;;;;;4991787;28;20210;-61
2022/09/04 07:52:06;;;;;;;2.50;2.17;;;17.20;99.90;;;;;;4974646;28;20206;-61
2022/09/04 07:54:55;;;;;;;6.28;2.05;;;17.30;99.90;;;;;;5002411;28;20247;-61
2022/09/04 07:57:55;;;;;;;3.63;2.10;;;17.30;99.90;;;;;;4977036;28;20213;-61
2022/09/04 08:00:22;;;;;;;3.13;2.22;;;17.30;99.90;;;;;;4984121;28;20234;-61
2022/09/04 08:03:10;;;;;;;5.25;2.42;;;17.60;99.90;;;;;;4989809;28;20202;-61
2022/09/04 08:05:44;;;;;;;6.10;2.20;;;17.50;99.90;;;;;;5002926;28;20202;-61
2022/09/04 08:08:51;;;;;;;2.10;1.90;;;17.80;99.90;;;;;;4980555;28;20220;-61
2022/09/04 08:11:52;;;;;;;4.22;1.98;;;17.80;99.90;;;;;;5003093;28;20667;-61
2022/09/04 08:14:27;;;;;;;3.28;1.98;;;17.50;99.90;;;;;;4988485;28;20695;-60
2022/09/04 08:17:28;;;;;;;4.38;1.83;;;17.60;99.90;;;;;;4982000;28;22441;-61
2022/09/04 08:20:03;;;;;;;3.80;2.03;;;17.70;99.90;;;;;;4988316;28;20220;-61
2022/09/04 08:22:43;;;;;;;6.78;2.20;;;17.90;99.90;;;;;;5000058;28;20225;-61
2022/09/04 08:25:19;;;;;;;3.55;1.98;;;17.80;99.90;;;;;;5007189;28;20202;-61
2022/09/04 08:28:01;;;;;;;3.08;2.38;;;17.80;99.90;;;;;;4987711;28;20213;-61
2022/09/04 08:30:32;;;;;;;4.07;2.20;;;18.00;99.90;;;;;;5006855;28;20225;-61
2022/09/04 08:33:20;;;;;;;2.80;2.10;;;18.30;99.90;;;;;;5004910;28;20604;-61
2022/09/04 08:35:56;;;;;;;2.33;2.00;;;17.90;99.90;;;;;;4991411;28;20236;-61
2022/09/04 08:38:49;;;;;;;5.00;2.40;;;18.10;99.90;;;;;;4996054;28;20233;-61
2022/09/04 08:41:47;;;;;;;4.60;2.13;;;18.30;95.90;;;;;;5008961;28;20357;-61
2022/09/04 08:44:27;;;;;;;3.22;2.33;;;;;;;;;;4989625;28;20301;-61
2022/09/04 08:47:28;;;;;;;5.18;2.13;;;18.30;99.90;;;;;;4979106;28;20225;-61
2022/09/04 08:50:15;;;;;;;6.15;2.42;;;18.40;99.90;;;;;;4987740;28;20435;-61
2022/09/04 08:53:22;;;;;;;2.90;2.20;;;18.50;72.70;;;;;;4994619;28;20234;-61
2022/09/04 08:56:06;;;;;;;10.13;2.28;;;19.70;67.50;;;;;;4916463;28;20700;-61
2022/09/04 08:59:04;;;;;;;7.18;2.35;;;18.60;90.00;;;;;;4999861;28;20288;-61
2022/09/04 09:02:17;;;;;;;2.88;2.00;;;18.60;74.20;;;;;;5003568;28;20683;-61
2022/09/04 09:05:22;;;;;;;4.45;2.40;;;18.80;69.00;;;;;;4914022;28;20219;-61
2022/09/04 09:08:06;;;;;;;4.70;2.78;;;18.90;54.40;;;;;;4993279;28;20209;-61
2022/09/04 09:10:37;;;;;;;4.28;2.33;;;18.90;70.50;;;;;;4986256;28;20202;-61
2022/09/04 09:13:44;;;;;;;6.45;2.40;;;19.10;50.20;;;;;;4990196;28;20223;-61
2022/09/04 09:16:20;;;;;;;2.80;2.00;;;19.10;99.90;;;;;;4993093;28;20210;-61
2022/09/04 09:19:10;;;;;;;3.38;2.22;;;19.20;37.10;;;;;;5008930;28;20226;-61
2022/09/04 09:21:46;;;;;;;3.53;2.35;;;19.30;99.90;;;;;;4989508;28;20245;-61
2022/09/04 09:24:50;;;;;;;5.57;2.10;;;20.50;99.90;;;;;;4984089;28;20702;-61
2022/09/04 09:27:40;;;;;;;3.83;2.25;;;19.30;78.40;;;;;;4988742;28;20300;-60
2022/09/04 09:30:08;;;;;;;3.83;2.55;;;19.40;38.20;;;;;;4990595;28;20215;-61
2022/09/04 09:33:26;;;;;;;4.72;2.40;;;19.70;99.90;;;;;;5005537;28;20775;-62
2022/09/04 09:36:26;;;;;;;9.68;2.40;;;19.80;44.50;;;;;;4974247;28;20232;-61
2022/09/04 09:39:10;;;;;;;6.57;2.13;;;;;;;;;;4999538;28;20226;-62
2022/09/04 09:42:13;;;;;;;2.30;2.10;;;19.80;8.10;;;;;;4974502;28;20241;-62
2022/09/04 09:45:14;;;;;;;6.07;2.45;;;19.80;2.50;;;;;;4966183;28;20230;-62
2022/09/04 09:48:25;;;;;;;3.00;2.10;;;19.90;5.50;;;;;;4989383;28;20339;-62
2022/09/04 09:51:29;;;;;;;3.05;2.60;;;19.90;17.30;;;;;;4987943;28;20217;-61
2022/09/04 09:54:23;;;;;;;3.75;2.92;;;20.00;11.00;;;;;;5002154;28;20198;-61
2022/09/04 09:57:20;;;;;;;3.63;2.15;;;20.20;1.00;;;;;;4961179;28;20233;-61
2022/09/04 10:00:04;;;;;;;4.18;2.25;;;;;;;;;;5000806;28;20229;-61
2022/09/04 10:03:18;;;;;;;5.82;2.10;;;20.40;1.00;;;;;;4979768;28;20229;-62
2022/09/04 10:06:28;;;;;;;5.20;2.58;;;20.50;1.00;;;;;;4993718;28;20237;-60
2022/09/04 10:09:29;;;;;;;5.05;2.25;;;20.40;1.00;;;;;;4968731;28;20210;-61
2022/09/04 10:12:29;;;;;;;3.95;2.63;;;20.50;1.00;;;;;;4984778;28;20735;-61
2022/09/04 10:15:22;;;;;;;5.32;2.35;;;20.70;1.00;;;;;;5007035;28;20198;-61
2022/09/04 10:18:32;;;;;;;2.97;2.38;;;20.70;1.00;;;;;;4996603;28;20213;-62
2022/09/04 10:21:17;;;;;;;8.20;2.28;;;20.80;1.00;;;;;;5008158;28;20272;-61
2022/09/04 10:24:16;;;;;;;6.90;2.50;;;21.00;1.00;;;;;;5004356;28;20206;-61
2022/09/04 10:27:23;;;;;;;4.22;2.25;;;20.70;1.00;;;;;;5010877;28;20205;-61
2022/09/04 10:29:58;;;;;;;5.03;2.42;;;20.90;1.00;;;;;;5007591;28;20222;-63
2022/09/04 10:33:03;;;;;;;3.90;2.00;;;21.00;1.00;;;;;;5006293;28;20198;-62
2022/09/04 10:35:41;;;;;;;4.72;2.00;;;20.90;1.00;;;;;;4993721;28;20656;-62
2022/09/04 10:38:26;;;;;;;5.28;2.20;;;21.10;1.00;;;;;;4999840;28;20714;-62
2022/09/04 10:41:31;;;;;;;7.38;2.10;;;21.10;1.00;;;;;;5007158;28;20195;-61
2022/09/04 10:44:48;;;;;;;8.55;2.90;;;21.20;1.00;;;;;;4982432;28;20311;-60
2022/09/04 10:47:30;;;;;;;4.32;2.03;;;21.40;1.00;;;;;;4964732;28;23122;-61
2022/09/04 10:50:16;;;;;;;6.07;2.25;;;21.40;1.00;;;;;;4978940;28;20226;-62
2022/09/04 10:53:07;;;;;;;3.25;2.45;;;21.40;1.00;;;;;;4992350;28;20221;-62
2022/09/04 10:56:02;;;;;;;3.50;2.40;;;21.70;1.00;;;;;;4999299;28;20198;-60
2022/09/04 10:58:43;;;;;;;5.78;2.25;;;21.50;1.00;;;;;;4971926;28;20213;-60
2022/09/04 11:01:39;;;;;;;2.85;2.13;;;21.50;43.80;;;;;;4990347;28;23140;-60
2022/09/04 11:04:44;;;;;;;3.20;2.00;;;21.70;1.00;;;;;;4991587;28;20214;-60
2022/09/04 11:07:37;;;;;;;2.53;2.03;;;21.50;23.30;;;;;;4979160;28;20206;-60
2022/09/04 11:10:21;;;;;;;3.70;2.00;;;21.60;1.00;;;;;;4986865;28;20269;-61
2022/09/04 11:13:26;;;;;;;3.80;2.10;;;21.70;1.00;;;;;;4999123;28;20221;-62
2022/09/04 11:16:09;;;;;;;4.45;2.38;;;21.70;1.00;;;;;;5003304;28;20198;-61
2022/09/04 11:18:59;;;;;;;2.85;1.92;;;21.90;1.00;;;;;;5006553;28;20679;-61
2022/09/04 11:21:50;;;;;;;2.15;1.95;;;21.90;1.00;;;;;;4979854;28;20233;-61
2022/09/04 11:24:52;;;;;;;5.40;2.35;;;22.10;1.00;;;;;;4990948;28;20234;-61
2022/09/04 11:27:48;;;;;;;1.92;1.80;;;22.00;1.00;;;;;;5004171;28;20198;-60
2022/09/04 11:30:18;;;;;;;1.85;1.70;;;22.00;1.00;;;;;;4978235;28;20241;-60
2022/09/04 11:33:38;;;;;;;2.65;1.92;;;22.00;1.00;;;;;;5004683;28;20257;-60
2022/09/04 11:36:47;;;;;;;4.72;2.10;;;22.10;1.00;;;;;;4989939;28;20404;-61
2022/09/04 11:39:48;;;;;;;3.33;1.80;;;22.20;1.00;;;;;;4974266;28;20229;-61
2022/09/04 11:42:40;;;;;;;2.22;2.03;;;22.20;1.00;;;;;;4990218;28;20233;-61
2022/09/04 11:45:35;;;;;;;3.30;1.90;;;22.30;1.00;;;;;;4965617;28;20217;-61
2022/09/04 11:48:40;;;;;;;2.78;2.03;;;22.30;1.00;;;;;;5003478;28;20209;-61
2022/09/04 11:51:59;;;;;;;4.38;2.10;;;22.40;1.00;;;;;;4997822;28;20260;-61
2022/09/04 11:55:01;;;;;;;3.28;2.10;;;22.50;1.00;;;;;;4901504;28;20212;-60
2022/09/04 11:57:44;;;;;;;2.75;2.22;;;22.50;1.00;;;;;;4923766;28;20197;-60
2022/09/04 12:00:13;;;;;;;2.05;1.80;;;22.50;1.00;;;;;;4956269;28;20241;-61
2022/09/04 12:03:12;;;;;;;5.45;2.22;;;22.50;1.00;;;;;;4998805;28;20710;-61
2022/09/04 12:05:58;;;;;;;4.18;1.95;;;22.70;1.00;;;;;;5000753;28;20202;-61
2022/09/04 12:08:46;;;;;;;3.35;2.28;;;22.70;1.00;;;;;;4973915;28;20228;-61
2022/09/04 12:11:38;;;;;;;3.05;2.17;;;22.70;1.00;;;;;;4991806;28;20691;-61
2022/09/04 12:14:28;;;;;;;3.50;2.00;;;22.70;1.00;;;;;;4974880;28;20617;-61
2022/09/04 12:17:28;;;;;;;2.72;2.00;;;22.60;1.00;;;;;;5005172;28;20272;-61
2022/09/04 12:20:16;;;;;;;5.18;2.10;;;22.60;1.00;;;;;;4998879;28;20244;-60
2022/09/04 12:23:17;;;;;;;6.28;2.10;;;22.60;1.00;;;;;;4977713;28;20244;-61
2022/09/04 12:26:36;;;;;;;1.98;1.75;;;22.50;1.00;;;;;;4988582;28;20206;-61
2022/09/04 12:29:37;;;;;;;3.33;2.05;;;22.60;1.00;;;;;;4987749;28;20595;-60
2022/09/04 12:32:41;;;;;;;3.25;1.95;;;22.80;1.00;;;;;;4976700;28;20209;-61
2022/09/04 12:35:41;;;;;;;1.88;1.75;;;22.80;1.00;;;;;;5001580;28;20198;-61
2022/09/04 12:38:38;;;;;;;4.32;2.22;;;22.80;1.00;;;;;;4986684;28;20274;-61
2022/09/04 12:41:11;;;;;;;4.00;2.03;;;22.80;1.00;;;;;;4980097;28;20206;-61
2022/09/04 12:43:56;;;;;;;4.72;2.13;;;23.00;1.00;;;;;;5003961;28;20950;-61
2022/09/04 12:46:49;;;;;;;2.42;2.22;;;22.90;1.00;;;;;;4973515;28;20214;-61
2022/09/04 12:49:45;;;;;;;4.05;2.42;;;22.90;1.00;;;;;;5005147;28;20198;-61
2022/09/04 12:52:25;;;;;;;4.78;2.05;;;23.10;1.00;;;;;;4995924;28;20206;-61
2022/09/04 12:55:03;;;;;;;3.65;2.40;;;23.00;1.00;;;;;;4984663;28;20783;-61
2022/09/04 12:57:40;;;;;;;2.53;2.13;;;22.90;1.00;;;;;;4980801;28;20296;-61
2022/09/04 13:00:09;;;;;;;2.70;1.95;;;23.00;1.00;;;;;;4993377;28;20222;-61
2022/09/04 13:02:53;;;;;;;1.98;1.83;;;23.00;1.00;;;;;;4979539;28;21138;-61
2022/09/04 13:05:45;;;;;;;3.78;2.10;;;23.00;1.00;;;;;;4998947;28;20655;-61
2022/09/04 13:08:18;;;;;;;1.80;1.70;;;23.00;1.00;;;;;;4994622;28;22951;-61
2022/09/04 13:10:59;;;;;;;2.80;2.20;;;23.10;1.00;;;;;;5004356;28;20198;-61
2022/09/04 13:13:36;;;;;;;1.95;1.70;;;23.00;1.00;;;;;;5009083;28;20222;-60
2022/09/04 13:16:13;;;;;;;2.20;2.00;;;23.10;1.00;;;;;;4970933;28;20213;-61
2022/09/04 13:18:59;;;;;;;2.88;1.98;;;23.20;1.00;;;;;;5006665;28;20686;-61
2022/09/04 13:21:39;;;;;;;2.05;1.85;;;23.30;1.00;;;;;;4996657;28;20233;-60
2022/09/04 13:24:24;;;;;;;3.30;2.47;;;23.20;1.00;;;;;;4999867;28;20670;-61
2022/09/04 13:27:06;;;;;;;2.83;2.00;;;23.20;1.00;;;;;;4996475;28;20223;-61
2022/09/04 13:29:45;;;;;;;2.83;1.85;;;23.20;1.00;;;;;;5002859;28;20301;-60
2022/09/04 13:32:34;;;;;;;3.20;2.08;;;23.20;1.00;;;;;;4973073;28;20213;-60
2022/09/04 13:35:13;;;;;;;3.13;2.28;;;23.30;1.00;;;;;;5009490;28;20206;-61
2022/09/04 13:37:59;;;;;;;8.13;2.33;;;23.30;1.00;;;;;;5005850;28;20781;-61
2022/09/04 13:40:41;;;;;;;7.20;1.90;;;23.40;1.00;;;;;;4992814;28;20220;-61
2022/09/04 13:43:48;;;;;;;3.50;2.40;;;23.50;1.00;;;;;;4991797;28;20257;-61
2022/09/04 13:46:18;;;;;;;4.10;2.20;;;23.40;1.00;;;;;;5000597;28;20237;-61
2022/09/04 13:48:50;;;;;;;3.17;2.00;;;23.40;1.00;;;;;;4974558;28;20233;-61
2022/09/04 13:51:24;;;;;;;5.53;2.22;;;23.40;1.00;;;;;;4990220;28;20233;-61
2022/09/04 13:54:03;;;;;;;2.83;1.98;;;23.50;1.00;;;;;;4989714;28;20210;-61
2022/09/04 13:56:34;;;;;;;3.17;2.03;;;23.50;1.00;;;;;;4998554;28;20217;-60
2022/09/04 13:59:07;;;;;;;4.15;2.03;;;23.50;1.00;;;;;;4995216;28;20203;-61
2022/09/04 14:01:38;;;;;;;2.35;1.88;;;23.50;1.00;;;;;;5002749;28;20198;-61
2022/09/04 14:04:10;;;;;;;3.67;2.13;;;23.60;1.00;;;;;;4982178;28;20592;-61
2022/09/04 14:06:39;;;;;;;3.58;2.40;;;23.50;1.00;;;;;;4996954;22;20265;-61
2022/09/04 14:09:06;;;;;;;6.35;2.30;;;23.40;1.00;;;;;;4989160;28;20222;-61
2022/09/04 14:11:49;;;;;;;3.30;2.00;;;23.60;1.00;;;;;;4982750;28;20222;-61
2022/09/04 14:14:42;;;;;;;2.33;1.92;;;23.70;1.00;;;;;;4991385;28;20210;-61
2022/09/04 14:17:11;;;;;;;2.65;2.00;;;23.50;1.00;;;;;;5000374;28;20207;-60
2022/09/04 14:19:54;;;;;;;3.50;1.80;;;23.70;1.00;;;;;;4975946;28;20226;-61
2022/09/04 14:22:34;;;;;;;3.35;2.10;;;23.60;1.00;;;;;;4995992;28;20230;-60